Time;durP1;ratioP1;P1;durP2;ratioP2;P2;SDS_P1;SDS_P2;PMS_P1;PMS_P2;Temp;Humidity;BMP_temperature;BMP_pressure;BME280_temperature;BME280_humidity;BME280_pressure;Samples;Min_cycle;Max_cycle;Signal;HPM_P1;HPM_P2
2023/05/26 05:09:05;;;;;;;27.67;6.15;;;14.80;67.20;;;;;;5652692;24;20050;-65
2023/05/26 05:11:31;;;;;;;42.20;7.68;;;15.00;67.70;;;;;;4806973;29;20050;-65
2023/05/26 05:13:57;;;;;;;48.65;7.93;;;15.00;67.70;;;;;;4808517;29;20077;-65
2023/05/26 05:16:23;;;;;;;36.72;6.18;;;15.10;67.80;;;;;;4808392;29;20499;-65
2023/05/26 05:18:49;;;;;;;33.90;6.05;;;15.20;67.60;;;;;;4792208;29;20054;-65
2023/05/26 05:21:14;;;;;;;26.30;5.97;;;15.20;67.00;;;;;;4790485;29;20130;-66
2023/05/26 05:23:40;;;;;;;22.35;4.97;;;15.20;66.50;;;;;;4807965;29;20054;-66
2023/05/26 05:26:06;;;;;;;27.27;6.10;;;15.30;66.20;;;;;;4808049;29;20108;-66
2023/05/26 05:28:32;;;;;;;24.30;5.28;;;15.30;65.80;;;;;;4807942;29;20050;-66
2023/05/26 05:30:57;;;;;;;23.63;5.50;;;15.30;65.60;;;;;;4808179;29;20149;-66
2023/05/26 05:33:23;;;;;;;38.63;6.50;;;15.20;65.30;;;;;;4808339;29;20057;-66
2023/05/26 05:35:49;;;;;;;24.77;4.90;;;15.20;65.20;;;;;;4808200;29;20055;-67
2023/05/26 05:38:15;;;;;;;23.40;5.07;;;15.20;65.10;;;;;;4807900;29;20082;-66
2023/05/26 05:40:40;;;;;;;24.70;5.22;;;15.30;65.10;;;;;;4807900;29;20151;-66
2023/05/26 05:43:06;;;;;;;20.45;5.15;;;15.30;65.10;;;;;;4807984;29;20054;-66
2023/05/26 05:45:32;;;;;;;24.55;5.43;;;15.30;65.00;;;;;;4807838;29;20046;-66
2023/05/26 05:47:57;;;;;;;17.17;4.65;;;15.30;64.80;;;;;;4807874;29;20489;-66
2023/05/26 05:50:23;;;;;;;23.45;5.35;;;15.30;65.10;;;;;;4801957;29;20096;-69
2023/05/26 05:52:49;;;;;;;24.02;5.88;;;15.30;65.00;;;;;;4804227;29;20214;-66
2023/05/26 05:55:15;;;;;;;21.65;4.80;;;15.40;64.80;;;;;;4797577;29;20137;-66
2023/05/26 05:57:41;;;;;;;30.65;5.85;;;15.40;64.70;;;;;;4760506;29;20055;-67
2023/05/26 06:00:09;;;;;;;26.27;5.93;;;15.40;64.60;;;;;;4807466;29;20180;-66
2023/05/26 06:02:36;;;;;;;27.15;6.72;;;15.40;64.50;;;;;;4806977;29;20066;-66
2023/05/26 06:05:05;;;;;;;27.73;6.05;;;15.40;65.10;;;;;;4793347;29;20054;-66
2023/05/26 06:07:31;;;;;;;25.13;5.32;;;15.40;64.50;;;;;;4807308;29;20050;-66
2023/05/26 06:09:57;;;;;;;27.65;5.68;;;15.40;64.40;;;;;;4807711;29;20078;-67
2023/05/26 06:12:23;;;;;;;25.83;5.55;;;15.40;64.30;;;;;;4807933;29;20086;-66
2023/05/26 06:14:49;;;;;;;27.15;5.78;;;15.50;64.30;;;;;;4807278;29;20111;-66
2023/05/26 06:17:15;;;;;;;19.13;5.15;;;15.50;64.40;;;;;;4809314;29;20059;-67
2023/05/26 06:19:40;;;;;;;23.92;5.15;;;15.50;64.50;;;;;;4811103;29;20523;-67
2023/05/26 06:22:06;;;;;;;20.48;4.38;;;15.50;64.50;;;;;;4811040;29;20146;-67
2023/05/26 06:24:32;;;;;;;16.88;4.78;;;15.60;64.40;;;;;;4811124;29;20141;-67
2023/05/26 06:26:58;;;;;;;22.88;4.70;;;15.60;64.30;;;;;;4811389;29;20059;-67
2023/05/26 06:29:23;;;;;;;19.30;5.07;;;15.60;64.30;;;;;;4811254;29;20050;-67
2023/05/26 06:31:49;;;;;;;19.35;5.22;;;15.70;64.30;;;;;;4811104;29;20386;-67
2023/05/26 06:34:15;;;;;;;15.65;3.88;;;15.70;64.30;;;;;;4810906;29;20466;-67
2023/05/26 06:36:41;;;;;;;17.15;4.22;;;15.70;64.20;;;;;;4795678;29;20078;-67
2023/05/26 06:39:06;;;;;;;19.30;4.15;;;15.70;64.20;;;;;;4811378;29;20058;-67
2023/05/26 06:41:32;;;;;;;18.00;4.25;;;15.70;64.20;;;;;;4811158;29;20058;-67
2023/05/26 06:43:58;;;;;;;13.68;3.40;;;15.80;64.20;;;;;;4790083;30;20047;-68
2023/05/26 06:46:24;;;;;;;25.42;5.55;;;15.80;64.10;;;;;;4792830;29;20063;-67
2023/05/26 06:48:49;;;;;;;19.38;4.72;;;15.80;64.70;;;;;;4792199;29;20047;-67
2023/05/26 06:51:15;;;;;;;18.23;4.60;;;15.80;65.10;;;;;;4792567;30;20502;-67
2023/05/26 06:53:41;;;;;;;19.00;4.40;;;15.90;65.40;;;;;;4792589;30;20467;-67
2023/05/26 06:56:07;;;;;;;23.63;5.68;;;15.90;65.60;;;;;;4793059;29;20138;-67
2023/05/26 06:58:33;;;;;;;22.75;5.30;;;15.90;65.60;;;;;;4800861;29;20086;-67
2023/05/26 07:01:01;;;;;;;19.90;4.38;;;15.90;65.60;;;;;;4783673;29;20066;-67
2023/05/26 07:03:28;;;;;;;19.98;4.53;;;15.90;64.50;;;;;;4810641;29;20054;-67
2023/05/26 07:05:57;;;;;;;25.15;4.97;;;15.90;64.00;;;;;;4810460;29;20051;-67
2023/05/26 07:08:23;;;;;;;14.27;4.57;;;15.90;63.20;;;;;;4807801;29;20114;-67
2023/05/26 07:10:49;;;;;;;16.27;4.28;;;15.90;62.80;;;;;;4792077;29;20145;-67
2023/05/26 07:13:15;;;;;;;18.35;4.85;;;15.90;62.60;;;;;;4792356;30;20526;-66
2023/05/26 07:15:42;;;;;;;18.25;3.92;;;15.90;62.30;;;;;;4791813;30;20054;-67
2023/05/26 07:18:08;;;;;;;16.38;4.55;;;15.90;62.10;;;;;;4791625;30;20055;-67
2023/05/26 07:20:34;;;;;;;17.05;3.75;;;15.90;62.10;;;;;;4791831;29;20452;-67
2023/05/26 07:23:00;;;;;;;17.50;4.32;;;15.90;62.30;;;;;;4791627;30;20479;-67
2023/05/26 07:25:26;;;;;;;15.27;3.58;;;15.90;62.30;;;;;;4791797;30;20123;-66
2023/05/26 07:27:51;;;;;;;16.60;3.40;;;15.90;61.90;;;;;;4775740;30;20048;-67
2023/05/26 07:30:18;;;;;;;16.77;4.20;;;15.90;61.70;;;;;;4791803;29;20063;-67
2023/05/26 07:32:44;;;;;;;16.80;4.30;;;15.90;61.60;;;;;;4791802;30;20112;-67
2023/05/26 07:35:10;;;;;;;14.02;3.63;;;15.90;61.70;;;;;;4791772;30;20062;-66
2023/05/26 07:37:36;;;;;;;13.73;3.90;;;15.90;61.80;;;;;;4793063;29;20470;-68
2023/05/26 07:40:03;;;;;;;17.33;4.25;;;15.90;62.10;;;;;;4800217;29;20051;-67
2023/05/26 07:42:29;;;;;;;15.73;4.10;;;15.90;62.40;;;;;;4801084;29;20047;-66
2023/05/26 07:44:55;;;;;;;16.77;4.22;;;16.00;62.10;;;;;;4794070;29;20478;-65
2023/05/26 07:47:22;;;;;;;13.35;3.78;;;16.00;61.60;;;;;;4800983;29;20047;-66
2023/05/26 07:49:48;;;;;;;10.10;3.05;;;16.00;60.80;;;;;;4803867;29;20125;-66
2023/05/26 07:52:13;;;;;;;13.18;3.38;;;16.00;60.50;;;;;;4809648;29;20059;-66
2023/05/26 07:54:40;;;;;;;13.15;3.70;;;16.00;60.70;;;;;;4789341;29;20138;-65
2023/05/26 07:57:05;;;;;;;11.80;3.55;;;16.00;60.70;;;;;;4808492;29;20046;-67
2023/05/26 07:59:31;;;;;;;8.77;3.33;;;16.00;60.40;;;;;;4793427;29;20379;-66
2023/05/26 08:01:57;;;;;;;12.25;3.50;;;16.10;60.20;;;;;;4809149;29;20475;-67
2023/05/26 08:04:23;;;;;;;11.60;3.25;;;16.10;60.10;;;;;;4809979;29;20047;-65
2023/05/26 08:06:49;;;;;;;15.02;3.60;;;16.10;59.90;;;;;;4809166;29;20479;-67
2023/05/26 08:09:15;;;;;;;12.02;3.40;;;16.10;59.40;;;;;;4809171;29;20067;-66
2023/05/26 08:11:40;;;;;;;14.32;3.88;;;16.20;59.50;;;;;;4809465;29;20075;-67
2023/05/26 08:14:06;;;;;;;15.68;3.58;;;16.10;59.40;;;;;;4809625;29;20367;-67
2023/05/26 08:16:32;;;;;;;11.93;4.00;;;16.20;59.50;;;;;;4809460;29;20528;-67
2023/05/26 08:18:58;;;;;;;15.68;3.92;;;16.10;59.40;;;;;;4808665;29;20087;-67
2023/05/26 08:21:23;;;;;;;10.93;3.70;;;16.10;59.30;;;;;;4809283;29;20439;-66
2023/05/26 08:23:49;;;;;;;14.40;3.90;;;16.10;59.40;;;;;;4802912;29;20123;-67
2023/05/26 08:26:15;;;;;;;15.18;3.50;;;16.20;59.50;;;;;;4809182;29;20057;-67
2023/05/26 08:28:41;;;;;;;13.38;4.05;;;16.20;59.70;;;;;;4808409;29;20116;-67
2023/05/26 08:31:07;;;;;;;16.20;4.03;;;16.20;59.60;;;;;;4809159;29;20142;-66
2023/05/26 08:33:32;;;;;;;13.68;3.97;;;16.20;59.20;;;;;;4808837;29;20054;-66
2023/05/26 08:35:58;;;;;;;13.05;3.33;;;16.20;58.80;;;;;;4809057;29;20055;-66
2023/05/26 08:38:24;;;;;;;9.75;3.35;;;16.20;58.80;;;;;;4799258;29;20353;-66
2023/05/26 08:40:55;;;;;;;9.48;3.33;;;16.20;58.60;;;;;;4790463;29;20138;-66
2023/05/26 08:43:42;;;;;;;10.40;3.78;;;16.20;58.60;;;;;;4790992;30;20051;-66
2023/05/26 08:46:10;;;;;;;15.35;3.47;;;16.20;58.70;;;;;;4790874;30;20051;-66
2023/05/26 08:48:38;;;;;;;10.45;3.03;;;16.20;58.50;;;;;;4800326;29;20054;-66
2023/05/26 08:51:10;;;;;;;13.63;3.72;;;16.20;58.50;;;;;;4792530;29;20066;-66
2023/05/26 08:53:36;;;;;;;11.25;3.08;;;16.20;58.50;;;;;;4792864;29;20061;-67
2023/05/26 08:56:03;;;;;;;14.77;3.58;;;16.20;58.60;;;;;;4798248;29;20046;-67
2023/05/26 08:58:31;;;;;;;8.50;3.35;;;16.20;58.80;;;;;;4790365;29;20063;-67
2023/05/26 09:00:58;;;;;;;12.38;3.03;;;16.20;59.00;;;;;;4808385;29;20514;-67
2023/05/26 09:03:23;;;;;;;10.73;3.10;;;16.20;58.60;;;;;;4799494;29;20128;-66
2023/05/26 09:05:49;;;;;;;12.77;3.75;;;16.30;60.20;;;;;;4808723;29;20112;-67
2023/05/26 09:08:15;;;;;;;12.32;3.40;;;16.30;60.40;;;;;;4808010;29;20046;-66
2023/05/26 09:10:41;;;;;;;11.57;3.17;;;16.30;59.20;;;;;;4808201;29;20059;-66
2023/05/26 09:13:08;;;;;;;11.38;3.22;;;16.30;59.50;;;;;;4808257;29;20066;-66
2023/05/26 09:15:36;;;;;;;13.82;3.53;;;16.30;59.60;;;;;;4808258;29;20498;-66
2023/05/26 09:18:10;;;;;;;12.50;3.38;;;16.30;59.80;;;;;;4789424;29;20378;-66
2023/05/26 09:20:45;;;;;;;;;;;16.40;59.80;;;;;;4790981;29;20382;-67
2023/05/26 09:23:11;;;;;;;13.80;3.05;;;16.30;59.70;;;;;;4790422;30;19933;-67
2023/05/26 09:25:43;;;;;;;12.45;3.28;;;16.30;60.00;;;;;;4790069;30;20058;-67
2023/05/26 09:28:11;;;;;;;14.10;3.47;;;16.30;59.80;;;;;;4794789;29;20126;-66
2023/05/26 09:30:44;;;;;;;12.57;4.00;;;16.30;59.50;;;;;;4808723;29;20058;-66
2023/05/26 09:33:17;;;;;;;15.05;3.42;;;16.30;59.60;;;;;;4808243;29;20055;-66
2023/05/26 09:35:45;;;;;;;13.15;3.55;;;16.30;59.50;;;;;;4807926;29;20108;-67
2023/05/26 09:38:14;;;;;;;12.50;2.97;;;16.30;59.30;;;;;;4801816;29;20087;-67
2023/05/26 09:40:43;;;;;;;18.60;4.05;;;16.30;59.00;;;;;;4807908;29;20055;-66
2023/05/26 09:43:09;;;;;;;14.38;3.25;;;16.40;58.70;;;;;;4808105;29;20054;-66
2023/05/26 09:45:36;;;;;;;12.82;3.20;;;16.30;58.50;;;;;;4805876;29;20108;-65
2023/05/26 09:48:04;;;;;;;15.35;3.90;;;16.40;58.40;;;;;;4808091;29;20076;-65
2023/05/26 09:50:32;;;;;;;17.70;4.57;;;16.40;58.60;;;;;;4807853;29;20471;-65
2023/05/26 09:52:59;;;;;;;14.55;3.72;;;16.40;59.10;;;;;;4808170;29;20086;-66
2023/05/26 09:55:25;;;;;;;14.82;4.45;;;16.40;59.70;;;;;;4807962;29;20061;-67
2023/05/26 09:57:53;;;;;;;23.13;4.72;;;16.50;60.30;;;;;;4803853;29;20367;-67
2023/05/26 10:00:21;;;;;;;13.13;3.55;;;16.50;60.90;;;;;;4781364;29;20086;-66
2023/05/26 10:02:47;;;;;;;9.60;3.22;;;16.50;60.80;;;;;;4806953;29;20430;-67
2023/05/26 10:05:17;;;;;;;13.90;3.92;;;16.50;60.80;;;;;;4796247;29;20058;-67
2023/05/26 10:07:43;;;;;;;17.13;3.95;;;16.50;61.20;;;;;;4807827;29;20129;-67
2023/05/26 10:10:13;;;;;;;13.73;3.53;;;16.50;61.60;;;;;;4807530;29;20439;-67
2023/05/26 10:12:41;;;;;;;12.13;3.22;;;16.50;61.50;;;;;;4802210;29;20356;-66
2023/05/26 10:15:07;;;;;;;8.23;2.92;;;16.50;61.40;;;;;;4789932;29;20062;-67
2023/05/26 10:17:34;;;;;;;10.48;3.10;;;16.50;61.40;;;;;;4806664;29;20086;-67
2023/05/26 10:20:00;;;;;;;11.40;2.85;;;16.60;61.60;;;;;;4807300;29;20093;-67
2023/05/26 10:22:29;;;;;;;15.05;3.97;;;16.60;61.80;;;;;;4792460;29;20047;-67
2023/05/26 10:25:02;;;;;;;16.52;4.07;;;16.60;61.90;;;;;;4787757;29;20051;-67
2023/05/26 10:27:53;;;;;;;15.40;4.13;;;16.60;62.00;;;;;;4807778;29;20058;-67
2023/05/26 10:30:20;;;;;;;17.83;4.65;;;16.50;61.40;;;;;;4806773;29;20166;-67
2023/05/26 10:32:52;;;;;;;12.27;4.00;;;16.50;60.80;;;;;;4789860;29;20055;-67
2023/05/26 10:35:28;;;;;;;14.15;3.58;;;16.50;60.50;;;;;;4797875;29;20126;-67
2023/05/26 10:38:12;;;;;;;13.30;3.55;;;16.50;60.70;;;;;;4789381;30;20066;-67
2023/05/26 10:40:49;;;;;;;13.15;3.50;;;16.50;60.00;;;;;;4781803;29;20083;-67
2023/05/26 10:43:25;;;;;;;9.00;3.20;;;16.50;60.60;;;;;;4797357;29;20058;-67
2023/05/26 10:45:55;;;;;;;12.60;3.42;;;16.50;60.90;;;;;;4807567;29;20428;-67
2023/05/26 10:48:25;;;;;;;14.57;3.88;;;16.50;61.00;;;;;;4793247;29;20055;-67
2023/05/26 10:51:00;;;;;;;11.90;3.40;;;16.50;61.00;;;;;;4789475;30;20091;-67
2023/05/26 10:53:30;;;;;;;12.88;3.80;;;16.50;61.20;;;;;;4789700;29;20367;-67
2023/05/26 10:55:58;;;;;;;11.77;3.47;;;16.50;61.30;;;;;;4789281;30;20090;-67
2023/05/26 10:58:34;;;;;;;14.75;3.65;;;16.60;61.40;;;;;;4790760;29;20123;-68
2023/05/26 11:01:00;;;;;;;18.30;3.97;;;16.60;61.50;;;;;;4803583;29;20083;-66
2023/05/26 11:03:35;;;;;;;17.80;3.80;;;16.60;61.70;;;;;;4775558;30;20414;-68
2023/05/26 11:06:01;;;;;;;20.60;4.22;;;16.60;61.80;;;;;;4795142;29;20047;-67
2023/05/26 11:08:35;;;;;;;18.50;4.90;;;16.60;61.80;;;;;;4802289;29;20055;-68
2023/05/26 11:11:05;;;;;;;16.92;4.03;;;16.60;61.60;;;;;;4818621;29;20058;-67
2023/05/26 11:13:44;;;;;;;17.35;3.78;;;16.60;61.20;;;;;;4816703;29;20373;-67
2023/05/26 11:16:19;;;;;;;18.10;3.85;;;16.60;61.10;;;;;;4823087;29;20361;-67
2023/05/26 11:18:57;;;;;;;12.23;3.65;;;16.60;60.90;;;;;;4808214;29;20086;-68
2023/05/26 11:21:27;;;;;;;14.98;4.15;;;16.50;60.30;;;;;;4824117;29;20543;-68
2023/05/26 11:23:56;;;;;;;14.70;4.10;;;16.50;60.40;;;;;;4828440;29;20054;-67
2023/05/26 11:26:22;;;;;;;14.50;3.67;;;16.50;60.50;;;;;;4820572;29;20099;-67
2023/05/26 11:28:49;;;;;;;15.63;3.58;;;16.50;60.70;;;;;;4818554;29;20061;-67
2023/05/26 11:31:17;;;;;;;14.20;3.75;;;16.50;60.60;;;;;;4824353;29;20055;-68
2023/05/26 11:33:44;;;;;;;12.80;3.33;;;16.50;60.90;;;;;;4810201;29;20376;-68
2023/05/26 11:36:18;;;;;;;13.90;3.55;;;16.50;60.30;;;;;;4809677;29;20105;-68
2023/05/26 11:38:47;;;;;;;17.65;4.38;;;16.50;60.40;;;;;;4809821;29;20134;-67
2023/05/26 11:41:17;;;;;;;27.75;5.65;;;16.50;60.20;;;;;;4811159;29;20062;-68
2023/05/26 11:43:46;;;;;;;23.65;5.10;;;16.60;60.20;;;;;;4819096;29;20426;-67
2023/05/26 11:46:14;;;;;;;20.30;4.10;;;16.60;60.50;;;;;;4819633;29;20516;-68
2023/05/26 11:48:42;;;;;;;13.20;4.07;;;16.60;60.70;;;;;;4826523;29;20050;-68
2023/05/26 11:51:17;;;;;;;25.90;5.05;;;16.60;60.80;;;;;;4824464;29;20054;-68
2023/05/26 11:53:45;;;;;;;14.95;3.85;;;16.60;60.90;;;;;;4809590;29;20054;-68
2023/05/26 11:56:15;;;;;;;19.77;4.38;;;16.60;61.00;;;;;;4809845;29;20435;-68
2023/05/26 11:58:54;;;;;;;18.90;4.35;;;16.60;61.10;;;;;;4809484;29;20050;-68
2023/05/26 12:01:21;;;;;;;13.20;3.60;;;16.70;61.20;;;;;;4809240;29;20057;-68
2023/05/26 12:03:51;;;;;;;22.25;4.93;;;16.60;61.30;;;;;;4827547;29;20065;-68
2023/05/26 12:06:24;;;;;;;13.38;3.85;;;16.70;61.50;;;;;;4827295;29;20034;-68
2023/05/26 12:08:52;;;;;;;10.73;3.53;;;16.70;61.60;;;;;;4827446;29;20050;-68
2023/05/26 12:11:21;;;;;;;15.48;3.50;;;16.70;61.70;;;;;;4808839;29;20125;-68
2023/05/26 12:14:12;;;;;;;15.65;3.83;;;16.60;61.70;;;;;;4806184;29;20147;-68
2023/05/26 12:16:43;;;;;;;15.00;4.25;;;16.70;61.90;;;;;;4787531;29;20059;-68
2023/05/26 12:19:10;;;;;;;15.40;3.90;;;16.70;61.90;;;;;;4792019;29;20047;-68
2023/05/26 12:21:45;;;;;;;19.65;3.85;;;16.70;62.00;;;;;;4806668;29;20062;-68
2023/05/26 12:24:13;;;;;;;12.70;4.07;;;16.70;62.10;;;;;;4791237;30;20123;-68
2023/05/26 12:26:40;;;;;;;12.60;3.47;;;16.70;62.20;;;;;;4794213;29;20042;-69
2023/05/26 12:29:16;;;;;;;11.00;3.50;;;16.70;62.90;;;;;;4807798;29;20047;-67
2023/05/26 12:31:44;;;;;;;12.65;3.60;;;16.70;62.30;;;;;;4805260;29;20046;-69
2023/05/26 12:34:23;;;;;;;11.02;3.83;;;16.70;62.30;;;;;;4806632;29;20340;-68
2023/05/26 12:36:50;;;;;;;16.48;4.25;;;16.70;62.40;;;;;;4808835;29;20062;-68
2023/05/26 12:39:17;;;;;;;18.10;4.15;;;16.70;62.40;;;;;;4797347;29;20116;-67
2023/05/26 12:41:45;;;;;;;19.13;5.25;;;16.70;62.30;;;;;;4793506;29;20445;-68
2023/05/26 12:44:11;;;;;;;18.65;4.65;;;16.70;62.30;;;;;;4808423;29;20066;-68
2023/05/26 12:46:46;;;;;;;16.98;3.63;;;16.70;62.30;;;;;;4808803;29;20058;-68
2023/05/26 12:49:12;;;;;;;16.60;4.38;;;16.70;62.40;;;;;;4808604;29;20055;-68
2023/05/26 12:51:39;;;;;;;18.17;3.97;;;16.80;62.50;;;;;;4794299;29;20043;-68
2023/05/26 12:54:06;;;;;;;19.00;3.95;;;16.70;62.40;;;;;;4802561;29;20054;-68
2023/05/26 12:56:33;;;;;;;17.05;4.47;;;16.70;62.40;;;;;;4804294;29;20043;-68
2023/05/26 12:58:59;;;;;;;15.88;3.80;;;16.70;62.50;;;;;;4806012;29;20042;-68
2023/05/26 13:01:25;;;;;;;19.40;4.53;;;16.70;62.50;;;;;;4791624;29;20062;-68
2023/05/26 13:03:51;;;;;;;14.13;4.05;;;16.70;62.50;;;;;;4801455;29;20054;-68
2023/05/26 13:06:17;;;;;;;13.75;4.50;;;16.70;62.40;;;;;;4808226;29;20065;-68
2023/05/26 13:08:43;;;;;;;11.20;3.92;;;16.70;62.30;;;;;;4809245;29;20065;-68
2023/05/26 13:11:10;;;;;;;12.02;3.92;;;16.70;62.50;;;;;;4798149;29;20059;-68
2023/05/26 13:13:41;;;;;;;17.27;4.68;;;16.70;62.60;;;;;;4804607;29;20061;-68
2023/05/26 13:16:10;;;;;;;16.38;4.25;;;16.70;62.80;;;;;;4804044;29;20418;-68
2023/05/26 13:18:37;;;;;;;17.83;3.65;;;16.70;62.70;;;;;;4800448;29;20051;-68
2023/05/26 13:21:03;;;;;;;14.10;4.35;;;16.70;62.60;;;;;;4805105;29;20051;-67
2023/05/26 13:23:29;;;;;;;17.38;4.15;;;16.80;62.20;;;;;;4790048;30;20047;-68
2023/05/26 13:25:55;;;;;;;15.55;4.55;;;16.70;61.90;;;;;;4790097;29;20055;-68
2023/05/26 13:28:21;;;;;;;10.95;4.22;;;16.70;62.00;;;;;;4797812;29;20074;-68
2023/05/26 13:30:48;;;;;;;12.90;3.78;;;16.70;62.00;;;;;;4807905;29;20062;-68
2023/05/26 13:33:14;;;;;;;11.90;4.22;;;16.70;62.00;;;;;;4808085;29;20047;-68
2023/05/26 13:35:40;;;;;;;14.98;3.80;;;16.70;62.30;;;;;;4791978;29;20061;-69
2023/05/26 13:38:06;;;;;;;15.95;4.90;;;16.70;62.40;;;;;;4792023;29;20062;-69
2023/05/26 13:40:32;;;;;;;15.43;4.10;;;16.70;62.50;;;;;;4804378;29;20055;-68
2023/05/26 13:42:58;;;;;;;10.90;3.70;;;16.70;62.60;;;;;;4791701;29;20058;-68
2023/05/26 13:45:24;;;;;;;13.93;3.80;;;16.70;62.70;;;;;;4807799;29;20189;-69
2023/05/26 13:47:50;;;;;;;15.70;5.07;;;16.70;62.90;;;;;;4807942;29;20055;-68
2023/05/26 13:50:16;;;;;;;13.35;4.45;;;16.70;63.00;;;;;;4793513;29;20090;-68
2023/05/26 13:52:42;;;;;;;13.50;4.22;;;16.80;63.10;;;;;;4790292;29;20047;-69
2023/05/26 13:55:08;;;;;;;9.60;4.10;;;16.80;63.10;;;;;;4790274;30;20324;-68
2023/05/26 13:57:34;;;;;;;16.48;4.05;;;16.70;62.80;;;;;;4789847;30;20074;-68
2023/05/26 14:00:00;;;;;;;16.92;5.28;;;16.70;62.50;;;;;;4790185;30;20069;-68
2023/05/26 14:02:26;;;;;;;13.98;4.30;;;16.70;62.50;;;;;;4790058;30;20062;-68
2023/05/26 14:04:51;;;;;;;13.77;4.25;;;16.80;62.40;;;;;;4789943;29;20043;-69
2023/05/26 14:07:17;;;;;;;14.32;4.70;;;16.70;62.30;;;;;;4789850;30;20059;-69
2023/05/26 14:09:44;;;;;;;12.00;3.53;;;16.80;62.60;;;;;;4800981;29;20497;-69
2023/05/26 14:12:10;;;;;;;17.33;4.60;;;16.80;62.90;;;;;;4807565;29;20091;-69
2023/05/26 14:14:36;;;;;;;14.77;4.80;;;16.80;63.20;;;;;;4807673;29;20194;-69
2023/05/26 14:17:02;;;;;;;16.52;4.45;;;16.80;62.90;;;;;;4807924;29;20047;-68
2023/05/26 14:19:28;;;;;;;24.25;5.85;;;16.80;62.80;;;;;;4807505;29;20058;-69
2023/05/26 14:21:53;;;;;;;16.13;5.07;;;16.80;62.60;;;;;;4807555;29;20054;-69
2023/05/26 14:24:19;;;;;;;18.92;5.07;;;16.80;62.60;;;;;;4807397;29;20513;-69
2023/05/26 14:26:45;;;;;;;15.27;4.68;;;16.80;62.50;;;;;;4804467;29;20052;-72
2023/05/26 14:29:10;;;;;;;17.85;5.20;;;16.80;62.50;;;;;;4794507;29;20055;-69
2023/05/26 14:31:36;;;;;;;17.90;4.85;;;16.80;62.50;;;;;;4807613;29;20055;-69
2023/05/26 14:34:02;;;;;;;24.63;5.90;;;16.80;62.50;;;;;;4807711;29;20107;-69
2023/05/26 14:36:29;;;;;;;39.70;16.58;;;16.80;62.60;;;;;;4807459;29;20050;-68
2023/05/26 14:38:54;;;;;;;37.60;15.55;;;16.90;62.90;;;;;;4806768;29;20395;-69
2023/05/26 14:41:20;;;;;;;41.75;16.58;;;16.90;63.60;;;;;;4793067;30;20047;-68
2023/05/26 14:43:46;;;;;;;41.38;12.15;;;16.90;64.30;;;;;;4793208;30;20051;-68
2023/05/26 14:46:12;;;;;;;41.25;15.32;;;16.90;64.30;;;;;;4792961;30;20062;-69
2023/05/26 14:48:39;;;;;;;52.75;16.85;;;17.00;65.30;;;;;;4792904;29;20062;-69
2023/05/26 14:51:05;;;;;;;55.13;14.95;;;17.00;65.90;;;;;;4810719;29;20055;-68
2023/05/26 14:53:30;;;;;;;53.72;13.27;;;17.00;66.30;;;;;;4810765;29;20050;-68
2023/05/26 14:55:58;;;;;;;58.45;13.20;;;17.10;66.20;;;;;;4810785;29;20050;-68
2023/05/26 14:58:24;;;;;;;44.22;12.05;;;17.10;66.30;;;;;;4810687;29;20050;-69
2023/05/26 15:00:51;;;;;;;45.50;11.55;;;17.10;66.30;;;;;;4777995;30;20090;-69
2023/05/26 15:03:16;;;;;;;31.63;9.95;;;17.20;66.40;;;;;;4792292;29;20463;-69
2023/05/26 15:05:42;;;;;;;40.25;10.77;;;17.20;66.00;;;;;;4792080;30;20058;-69
2023/05/26 15:08:10;;;;;;;29.45;9.57;;;17.30;66.10;;;;;;4792590;30;20061;-69
2023/05/26 15:10:36;;;;;;;31.02;9.38;;;17.30;66.30;;;;;;4806251;29;20135;-69
2023/05/26 15:13:02;;;;;;;26.25;8.30;;;17.30;66.40;;;;;;4810179;29;20057;-69
2023/05/26 15:15:28;;;;;;;33.22;10.50;;;17.30;66.30;;;;;;4810512;29;20054;-69
2023/05/26 15:17:54;;;;;;;30.45;9.18;;;17.30;66.80;;;;;;4810598;29;20058;-69
2023/05/26 15:20:25;;;;;;;32.10;8.20;;;17.40;67.30;;;;;;4797956;29;20116;-69
2023/05/26 15:22:51;;;;;;;38.50;9.02;;;17.40;67.60;;;;;;4792261;29;20059;-69
2023/05/26 15:25:17;;;;;;;32.90;8.23;;;17.40;67.50;;;;;;4792063;30;20125;-69
2023/05/26 15:27:43;;;;;;;27.38;8.40;;;17.40;67.30;;;;;;4792175;29;20043;-68
2023/05/26 15:30:09;;;;;;;35.47;8.77;;;17.40;67.30;;;;;;4786180;29;20122;-71
2023/05/26 15:32:35;;;;;;;40.15;10.00;;;17.50;67.80;;;;;;4809843;29;20483;-68
2023/05/26 15:35:01;;;;;;;30.67;8.68;;;17.50;68.10;;;;;;4794231;29;20089;-69
2023/05/26 15:37:27;;;;;;;35.83;9.25;;;17.50;67.90;;;;;;4794373;29;20066;-68
2023/05/26 15:39:52;;;;;;;33.00;8.50;;;17.50;68.00;;;;;;4801381;29;20062;-68
2023/05/26 15:42:21;;;;;;;54.63;10.07;;;17.50;68.20;;;;;;4776286;30;20059;-68
2023/05/26 15:44:47;;;;;;;43.40;9.48;;;17.50;68.70;;;;;;4776683;30;20238;-68
2023/05/26 15:47:12;;;;;;;54.42;10.73;;;17.50;69.00;;;;;;4791758;29;20518;-68
2023/05/26 15:49:38;;;;;;;31.77;8.15;;;17.50;69.00;;;;;;4780518;29;20050;-68
2023/05/26 15:52:04;;;;;;;35.80;8.38;;;17.40;68.40;;;;;;4809748;29;20055;-68
2023/05/26 15:54:30;;;;;;;25.92;6.78;;;17.40;67.90;;;;;;4810463;29;20141;-69
2023/05/26 15:56:56;;;;;;;38.45;7.82;;;17.50;67.40;;;;;;4778999;29;20065;-67
2023/05/26 15:59:22;;;;;;;27.08;6.25;;;17.40;66.80;;;;;;4790524;29;20130;-69
2023/05/26 16:01:48;;;;;;;28.27;6.00;;;17.40;66.40;;;;;;4791790;30;20487;-68
2023/05/26 16:04:13;;;;;;;22.92;6.30;;;17.40;66.10;;;;;;4776338;30;20109;-68
2023/05/26 16:06:40;;;;;;;26.83;6.63;;;17.40;66.00;;;;;;4775466;30;20128;-68
2023/05/26 16:09:06;;;;;;;26.25;6.72;;;17.40;66.10;;;;;;4776203;29;20128;-69
2023/05/26 16:11:33;;;;;;;36.15;7.20;;;17.30;66.10;;;;;;4793881;29;20067;-67
2023/05/26 16:13:59;;;;;;;36.67;7.28;;;17.40;66.30;;;;;;4809695;29;20046;-68
2023/05/26 16:16:25;;;;;;;29.92;6.30;;;17.40;66.40;;;;;;4793383;29;20077;-69
2023/05/26 16:18:52;;;;;;;31.50;6.00;;;17.50;66.60;;;;;;4794088;29;20055;-68
2023/05/26 16:21:18;;;;;;;29.77;6.90;;;17.40;66.80;;;;;;4776039;29;20139;-67
2023/05/26 16:23:44;;;;;;;29.90;7.18;;;17.50;67.20;;;;;;4775367;30;20126;-68
2023/05/26 16:26:10;;;;;;;39.33;7.40;;;17.50;67.20;;;;;;4791229;29;20434;-67
2023/05/26 16:28:35;;;;;;;26.25;6.47;;;17.50;67.30;;;;;;4790604;29;20186;-66
2023/05/26 16:31:01;;;;;;;25.73;6.30;;;17.50;67.40;;;;;;4805428;29;20568;-67
2023/05/26 16:33:27;;;;;;;18.10;5.75;;;17.50;67.40;;;;;;4809465;29;20516;-66
2023/05/26 16:35:55;;;;;;;25.95;6.13;;;17.50;67.50;;;;;;4809368;29;20126;-67
2023/05/26 16:38:23;;;;;;;32.65;6.13;;;17.50;67.60;;;;;;4809623;29;20101;-72
2023/05/26 16:40:49;;;;;;;29.70;5.82;;;17.50;67.60;;;;;;4779499;30;20059;-67
2023/05/26 16:43:15;;;;;;;24.98;5.25;;;17.50;67.80;;;;;;4799312;29;20050;-67
2023/05/26 16:45:41;;;;;;;20.33;5.93;;;17.50;67.90;;;;;;4809152;29;20073;-68
2023/05/26 16:48:07;;;;;;;28.13;5.82;;;17.50;68.30;;;;;;4809306;29;20130;-68
2023/05/26 16:50:32;;;;;;;21.73;5.50;;;17.50;68.40;;;;;;4797565;29;20082;-67
2023/05/26 16:52:58;;;;;;;20.08;4.90;;;17.50;68.70;;;;;;4790642;30;20052;-68
2023/05/26 16:55:25;;;;;;;23.38;5.72;;;17.50;68.80;;;;;;4790810;30;20048;-67
2023/05/26 16:57:52;;;;;;;17.10;4.32;;;17.50;68.70;;;;;;4790601;29;20368;-67
2023/05/26 17:00:17;;;;;;;19.23;4.47;;;17.50;68.70;;;;;;4790403;29;20383;-67
2023/05/26 17:02:44;;;;;;;14.88;3.70;;;17.40;68.60;;;;;;4790938;30;20087;-68
2023/05/26 17:05:09;;;;;;;19.05;4.75;;;17.40;68.60;;;;;;4775092;30;20066;-68
2023/05/26 17:07:35;;;;;;;20.60;4.50;;;17.50;68.70;;;;;;4790458;30;20055;-67
2023/05/26 17:10:02;;;;;;;22.25;4.50;;;17.40;68.70;;;;;;4796352;29;20163;-67
2023/05/26 17:12:27;;;;;;;13.77;4.72;;;17.50;69.50;;;;;;4808391;29;20063;-68
2023/05/26 17:14:53;;;;;;;17.58;4.68;;;17.50;69.80;;;;;;4790952;29;20059;-67
2023/05/26 17:17:19;;;;;;;22.65;5.43;;;17.50;70.50;;;;;;4807945;29;20058;-67
2023/05/26 17:19:45;;;;;;;21.13;5.22;;;17.50;69.90;;;;;;4804653;29;20055;-66
2023/05/26 17:22:11;;;;;;;20.45;5.15;;;17.50;70.00;;;;;;4808058;29;20061;-67
2023/05/26 17:24:37;;;;;;;26.13;6.15;;;17.50;70.10;;;;;;4808372;29;20459;-67
2023/05/26 17:27:03;;;;;;;23.42;5.32;;;17.50;70.20;;;;;;4808537;29;20051;-68
2023/05/26 17:29:28;;;;;;;21.48;5.07;;;17.50;70.20;;;;;;4806271;29;20371;-67
2023/05/26 17:31:54;;;;;;;31.42;6.13;;;17.50;70.30;;;;;;4804262;29;20407;-67
2023/05/26 17:34:20;;;;;;;16.65;4.43;;;17.50;70.30;;;;;;4807600;29;20058;-67
2023/05/26 17:36:46;;;;;;;24.73;4.97;;;17.50;70.30;;;;;;4792668;29;20059;-67
2023/05/26 17:39:11;;;;;;;17.23;4.10;;;17.40;70.30;;;;;;4802869;29;20051;-69
2023/05/26 17:41:37;;;;;;;19.38;4.97;;;17.40;70.40;;;;;;4774556;30;20135;-67
2023/05/26 17:44:03;;;;;;;18.58;5.15;;;17.40;70.30;;;;;;4790164;30;20054;-67